sensor_id;sensor_type;location;lat;lon;timestamp;P1;durP1;ratioP1;P2;durP2;ratioP2
28074;SDS011;15385;51.088;6.572;2023-05-07T00:00:22;5.47;;;3.58;;
28074;SDS011;15385;51.088;6.572;2023-05-07T00:02:52;3.65;;;3.20;;
28074;SDS011;15385;51.088;6.572;2023-05-07T00:05:23;3.58;;;3.20;;
28074;SDS011;15385;51.088;6.572;2023-05-07T00:07:53;4.40;;;3.20;;
28074;SDS011;15385;51.088;6.572;2023-05-07T00:10:24;4.43;;;3.08;;
28074;SDS011;15385;51.088;6.572;2023-05-07T00:12:55;3.85;;;2.55;;
28074;SDS011;15385;51.088;6.572;2023-05-07T00:15:26;2.95;;;2.00;;
28074;SDS011;15385;51.088;6.572;2023-05-07T00:17:56;2.63;;;1.83;;
28074;SDS011;15385;51.088;6.572;2023-05-07T00:20:29;4.32;;;2.50;;
28074;SDS011;15385;51.088;6.572;2023-05-07T00:22:59;5.28;;;2.85;;
28074;SDS011;15385;51.088;6.572;2023-05-07T00:25:30;4.32;;;2.60;;
28074;SDS011;15385;51.088;6.572;2023-05-07T00:28:01;4.43;;;2.92;;
28074;SDS011;15385;51.088;6.572;2023-05-07T00:30:33;5.78;;;4.40;;
28074;SDS011;15385;51.088;6.572;2023-05-07T00:33:04;6.63;;;3.88;;
28074;SDS011;15385;51.088;6.572;2023-05-07T00:35:34;3.22;;;2.92;;
28074;SDS011;15385;51.088;6.572;2023-05-07T00:38:05;4.60;;;3.05;;
28074;SDS011;15385;51.088;6.572;2023-05-07T00:40:35;2.97;;;2.67;;
28074;SDS011;15385;51.088;6.572;2023-05-07T00:43:06;3.42;;;2.45;;
28074;SDS011;15385;51.088;6.572;2023-05-07T00:45:37;5.38;;;2.55;;
28074;SDS011;15385;51.088;6.572;2023-05-07T00:48:07;5.30;;;3.38;;
28074;SDS011;15385;51.088;6.572;2023-05-07T00:50:38;4.78;;;3.00;;
28074;SDS011;15385;51.088;6.572;2023-05-07T00:53:09;3.50;;;2.67;;
28074;SDS011;15385;51.088;6.572;2023-05-07T00:55:39;4.05;;;2.65;;
28074;SDS011;15385;51.088;6.572;2023-05-07T00:58:10;5.38;;;3.22;;
28074;SDS011;15385;51.088;6.572;2023-05-07T01:00:41;3.95;;;2.70;;
28074;SDS011;15385;51.088;6.572;2023-05-07T01:03:11;4.07;;;2.88;;
28074;SDS011;15385;51.088;6.572;2023-05-07T01:05:42;4.72;;;2.67;;
28074;SDS011;15385;51.088;6.572;2023-05-07T01:08:15;4.47;;;3.65;;
28074;SDS011;15385;51.088;6.572;2023-05-07T01:10:46;5.18;;;3.00;;
28074;SDS011;15385;51.088;6.572;2023-05-07T01:13:17;3.22;;;2.92;;
28074;SDS011;15385;51.088;6.572;2023-05-07T01:15:49;4.32;;;3.20;;
28074;SDS011;15385;51.088;6.572;2023-05-07T01:18:20;5.00;;;3.35;;
28074;SDS011;15385;51.088;6.572;2023-05-07T01:20:52;6.68;;;3.53;;
28074;SDS011;15385;51.088;6.572;2023-05-07T01:23:23;4.10;;;2.95;;
28074;SDS011;15385;51.088;6.572;2023-05-07T01:25:55;5.63;;;4.00;;
28074;SDS011;15385;51.088;6.572;2023-05-07T01:28:26;4.95;;;3.47;;
28074;SDS011;15385;51.088;6.572;2023-05-07T01:30:59;4.95;;;3.60;;
28074;SDS011;15385;51.088;6.572;2023-05-07T01:33:33;4.70;;;3.33;;
28074;SDS011;15385;51.088;6.572;2023-05-07T01:36:06;4.00;;;3.40;;
28074;SDS011;15385;51.088;6.572;2023-05-07T01:38:38;5.90;;;3.35;;
28074;SDS011;15385;51.088;6.572;2023-05-07T01:41:11;7.82;;;3.60;;
28074;SDS011;15385;51.088;6.572;2023-05-07T01:43:43;4.22;;;3.47;;
28074;SDS011;15385;51.088;6.572;2023-05-07T01:46:13;4.53;;;3.33;;
28074;SDS011;15385;51.088;6.572;2023-05-07T01:48:45;4.82;;;3.30;;
28074;SDS011;15385;51.088;6.572;2023-05-07T01:51:16;4.03;;;3.40;;
28074;SDS011;15385;51.088;6.572;2023-05-07T01:53:47;4.82;;;3.58;;
28074;SDS011;15385;51.088;6.572;2023-05-07T01:56:20;4.47;;;3.17;;
28074;SDS011;15385;51.088;6.572;2023-05-07T01:58:51;4.18;;;3.17;;
28074;SDS011;15385;51.088;6.572;2023-05-07T02:01:22;3.85;;;3.20;;
28074;SDS011;15385;51.088;6.572;2023-05-07T02:03:52;3.95;;;2.95;;
28074;SDS011;15385;51.088;6.572;2023-05-07T02:06:23;4.72;;;2.80;;
28074;SDS011;15385;51.088;6.572;2023-05-07T02:08:54;4.25;;;3.40;;
28074;SDS011;15385;51.088;6.572;2023-05-07T02:11:25;4.10;;;3.30;;
28074;SDS011;15385;51.088;6.572;2023-05-07T02:13:55;4.13;;;3.45;;
28074;SDS011;15385;51.088;6.572;2023-05-07T02:16:26;4.82;;;3.72;;
28074;SDS011;15385;51.088;6.572;2023-05-07T02:18:56;5.68;;;2.90;;
28074;SDS011;15385;51.088;6.572;2023-05-07T02:21:28;5.03;;;3.03;;
28074;SDS011;15385;51.088;6.572;2023-05-07T02:23:58;4.15;;;2.95;;
28074;SDS011;15385;51.088;6.572;2023-05-07T02:26:29;4.35;;;2.72;;
28074;SDS011;15385;51.088;6.572;2023-05-07T02:28:59;5.28;;;2.90;;
28074;SDS011;15385;51.088;6.572;2023-05-07T02:31:30;3.60;;;2.67;;
28074;SDS011;15385;51.088;6.572;2023-05-07T02:34:01;4.60;;;2.83;;
28074;SDS011;15385;51.088;6.572;2023-05-07T02:36:31;5.22;;;3.15;;
28074;SDS011;15385;51.088;6.572;2023-05-07T02:39:02;3.88;;;3.17;;
28074;SDS011;15385;51.088;6.572;2023-05-07T02:41:33;3.28;;;2.95;;
28074;SDS011;15385;51.088;6.572;2023-05-07T02:44:04;4.60;;;3.22;;
28074;SDS011;15385;51.088;6.572;2023-05-07T02:46:35;5.07;;;3.50;;
28074;SDS011;15385;51.088;6.572;2023-05-07T02:49:05;3.42;;;3.13;;
28074;SDS011;15385;51.088;6.572;2023-05-07T02:51:36;5.30;;;3.15;;
28074;SDS011;15385;51.088;6.572;2023-05-07T02:54:06;4.30;;;3.10;;
28074;SDS011;15385;51.088;6.572;2023-05-07T02:56:37;3.72;;;3.20;;
28074;SDS011;15385;51.088;6.572;2023-05-07T02:59:07;3.47;;;2.90;;
28074;SDS011;15385;51.088;6.572;2023-05-07T03:01:38;5.43;;;2.90;;
28074;SDS011;15385;51.088;6.572;2023-05-07T03:04:09;7.00;;;3.22;;
28074;SDS011;15385;51.088;6.572;2023-05-07T03:06:40;4.63;;;3.60;;
28074;SDS011;15385;51.088;6.572;2023-05-07T03:09:11;3.88;;;3.17;;
28074;SDS011;15385;51.088;6.572;2023-05-07T03:11:42;3.60;;;2.88;;
28074;SDS011;15385;51.088;6.572;2023-05-07T03:14:12;3.65;;;3.25;;
28074;SDS011;15385;51.088;6.572;2023-05-07T03:16:43;5.40;;;3.45;;
28074;SDS011;15385;51.088;6.572;2023-05-07T03:19:13;4.53;;;3.13;;
28074;SDS011;15385;51.088;6.572;2023-05-07T03:21:44;4.32;;;3.13;;
28074;SDS011;15385;51.088;6.572;2023-05-07T03:24:15;4.13;;;2.70;;
28074;SDS011;15385;51.088;6.572;2023-05-07T03:26:45;3.72;;;2.92;;
28074;SDS011;15385;51.088;6.572;2023-05-07T03:29:16;4.20;;;2.97;;
28074;SDS011;15385;51.088;6.572;2023-05-07T03:31:46;4.85;;;3.08;;
28074;SDS011;15385;51.088;6.572;2023-05-07T03:34:17;5.43;;;3.15;;
28074;SDS011;15385;51.088;6.572;2023-05-07T03:36:51;5.22;;;2.70;;
28074;SDS011;15385;51.088;6.572;2023-05-07T03:39:22;4.35;;;2.92;;
28074;SDS011;15385;51.088;6.572;2023-05-07T03:41:53;4.40;;;3.08;;
28074;SDS011;15385;51.088;6.572;2023-05-07T03:44:23;4.10;;;2.88;;
28074;SDS011;15385;51.088;6.572;2023-05-07T03:46:54;3.35;;;2.97;;
28074;SDS011;15385;51.088;6.572;2023-05-07T03:49:25;4.60;;;2.97;;
28074;SDS011;15385;51.088;6.572;2023-05-07T03:51:55;4.47;;;3.05;;
28074;SDS011;15385;51.088;6.572;2023-05-07T03:54:26;4.60;;;2.72;;
28074;SDS011;15385;51.088;6.572;2023-05-07T03:56:57;3.22;;;2.92;;
28074;SDS011;15385;51.088;6.572;2023-05-07T03:59:27;3.83;;;3.17;;
28074;SDS011;15385;51.088;6.572;2023-05-07T04:01:58;3.55;;;2.90;;
28074;SDS011;15385;51.088;6.572;2023-05-07T04:04:28;4.45;;;3.33;;
28074;SDS011;15385;51.088;6.572;2023-05-07T04:07:02;3.13;;;2.83;;
28074;SDS011;15385;51.088;6.572;2023-05-07T04:09:33;6.63;;;3.58;;
28074;SDS011;15385;51.088;6.572;2023-05-07T04:12:04;4.28;;;3.00;;
28074;SDS011;15385;51.088;6.572;2023-05-07T04:14:34;4.03;;;2.90;;
28074;SDS011;15385;51.088;6.572;2023-05-07T04:17:05;4.50;;;3.17;;
28074;SDS011;15385;51.088;6.572;2023-05-07T04:19:37;4.05;;;3.22;;
28074;SDS011;15385;51.088;6.572;2023-05-07T04:22:09;4.55;;;3.17;;
28074;SDS011;15385;51.088;6.572;2023-05-07T04:24:40;4.32;;;2.60;;
28074;SDS011;15385;51.088;6.572;2023-05-07T04:27:10;6.30;;;3.33;;
28074;SDS011;15385;51.088;6.572;2023-05-07T04:29:41;5.55;;;2.83;;
28074;SDS011;15385;51.088;6.572;2023-05-07T04:32:12;5.45;;;2.97;;
28074;SDS011;15385;51.088;6.572;2023-05-07T04:34:43;4.57;;;2.85;;
28074;SDS011;15385;51.088;6.572;2023-05-07T04:37:13;3.65;;;3.08;;
28074;SDS011;15385;51.088;6.572;2023-05-07T04:39:44;3.00;;;2.70;;
28074;SDS011;15385;51.088;6.572;2023-05-07T04:42:15;4.72;;;3.20;;
28074;SDS011;15385;51.088;6.572;2023-05-07T04:44:46;2.97;;;2.45;;
28074;SDS011;15385;51.088;6.572;2023-05-07T04:47:17;6.13;;;3.05;;
28074;SDS011;15385;51.088;6.572;2023-05-07T04:49:48;7.78;;;3.55;;
28074;SDS011;15385;51.088;6.572;2023-05-07T04:52:18;4.35;;;3.13;;
28074;SDS011;15385;51.088;6.572;2023-05-07T04:54:49;4.05;;;2.80;;
28074;SDS011;15385;51.088;6.572;2023-05-07T04:57:19;4.72;;;3.50;;
28074;SDS011;15385;51.088;6.572;2023-05-07T04:59:50;4.93;;;3.28;;
28074;SDS011;15385;51.088;6.572;2023-05-07T05:02:20;4.70;;;3.05;;
28074;SDS011;15385;51.088;6.572;2023-05-07T05:04:51;3.78;;;2.97;;
28074;SDS011;15385;51.088;6.572;2023-05-07T05:07:22;3.50;;;2.67;;
28074;SDS011;15385;51.088;6.572;2023-05-07T05:09:52;3.33;;;2.88;;
28074;SDS011;15385;51.088;6.572;2023-05-07T05:12:23;4.35;;;3.17;;
28074;SDS011;15385;51.088;6.572;2023-05-07T05:14:53;4.38;;;2.88;;
28074;SDS011;15385;51.088;6.572;2023-05-07T05:17:24;4.20;;;2.97;;
28074;SDS011;15385;51.088;6.572;2023-05-07T05:19:55;3.13;;;2.72;;
28074;SDS011;15385;51.088;6.572;2023-05-07T05:22:26;5.22;;;2.88;;
28074;SDS011;15385;51.088;6.572;2023-05-07T05:24:59;3.83;;;2.70;;
28074;SDS011;15385;51.088;6.572;2023-05-07T05:27:31;4.88;;;2.92;;
28074;SDS011;15385;51.088;6.572;2023-05-07T05:30:01;6.07;;;3.00;;
28074;SDS011;15385;51.088;6.572;2023-05-07T05:32:33;8.75;;;3.00;;
28074;SDS011;15385;51.088;6.572;2023-05-07T05:35:04;5.05;;;2.78;;
28074;SDS011;15385;51.088;6.572;2023-05-07T05:37:34;5.05;;;3.08;;
28074;SDS011;15385;51.088;6.572;2023-05-07T05:40:05;4.93;;;2.90;;
28074;SDS011;15385;51.088;6.572;2023-05-07T05:42:36;4.50;;;3.00;;
28074;SDS011;15385;51.088;6.572;2023-05-07T05:45:07;4.40;;;2.47;;
28074;SDS011;15385;51.088;6.572;2023-05-07T05:47:38;4.63;;;2.90;;
28074;SDS011;15385;51.088;6.572;2023-05-07T05:50:09;2.63;;;2.30;;
28074;SDS011;15385;51.088;6.572;2023-05-07T05:52:40;4.82;;;2.55;;
28074;SDS011;15385;51.088;6.572;2023-05-07T05:55:10;2.83;;;2.53;;
28074;SDS011;15385;51.088;6.572;2023-05-07T05:57:41;4.18;;;2.20;;
28074;SDS011;15385;51.088;6.572;2023-05-07T06:00:12;4.30;;;2.35;;
28074;SDS011;15385;51.088;6.572;2023-05-07T06:02:43;2.60;;;2.00;;
28074;SDS011;15385;51.088;6.572;2023-05-07T06:05:13;2.65;;;2.25;;
28074;SDS011;15385;51.088;6.572;2023-05-07T06:07:44;4.40;;;2.72;;
28074;SDS011;15385;51.088;6.572;2023-05-07T06:10:15;3.40;;;2.65;;
28074;SDS011;15385;51.088;6.572;2023-05-07T06:12:46;2.50;;;1.95;;
28074;SDS011;15385;51.088;6.572;2023-05-07T06:15:16;4.18;;;2.17;;
28074;SDS011;15385;51.088;6.572;2023-05-07T06:17:47;5.18;;;2.28;;
28074;SDS011;15385;51.088;6.572;2023-05-07T06:20:18;4.45;;;2.42;;
28074;SDS011;15385;51.088;6.572;2023-05-07T06:22:49;3.15;;;1.92;;
28074;SDS011;15385;51.088;6.572;2023-05-07T06:25:20;3.08;;;2.25;;
28074;SDS011;15385;51.088;6.572;2023-05-07T06:27:51;2.70;;;1.90;;
28074;SDS011;15385;51.088;6.572;2023-05-07T06:30:22;3.10;;;2.20;;
28074;SDS011;15385;51.088;6.572;2023-05-07T06:32:53;3.25;;;2.42;;
28074;SDS011;15385;51.088;6.572;2023-05-07T06:35:23;3.80;;;1.80;;
28074;SDS011;15385;51.088;6.572;2023-05-07T06:37:54;2.40;;;2.03;;
28074;SDS011;15385;51.088;6.572;2023-05-07T06:40:24;2.63;;;2.17;;
28074;SDS011;15385;51.088;6.572;2023-05-07T06:42:55;2.35;;;2.00;;
28074;SDS011;15385;51.088;6.572;2023-05-07T06:45:25;3.13;;;2.28;;
28074;SDS011;15385;51.088;6.572;2023-05-07T06:47:56;4.60;;;2.47;;
28074;SDS011;15385;51.088;6.572;2023-05-07T06:50:27;3.95;;;2.70;;
28074;SDS011;15385;51.088;6.572;2023-05-07T06:52:57;4.28;;;2.53;;
28074;SDS011;15385;51.088;6.572;2023-05-07T06:55:28;5.70;;;2.78;;
28074;SDS011;15385;51.088;6.572;2023-05-07T06:57:58;4.32;;;2.75;;
28074;SDS011;15385;51.088;6.572;2023-05-07T07:00:30;2.92;;;2.28;;
28074;SDS011;15385;51.088;6.572;2023-05-07T07:03:01;3.13;;;2.03;;
28074;SDS011;15385;51.088;6.572;2023-05-07T07:05:32;3.38;;;2.38;;
28074;SDS011;15385;51.088;6.572;2023-05-07T07:08:02;3.33;;;2.80;;
28074;SDS011;15385;51.088;6.572;2023-05-07T07:10:33;2.00;;;1.80;;
28074;SDS011;15385;51.088;6.572;2023-05-07T07:13:03;3.92;;;2.20;;
28074;SDS011;15385;51.088;6.572;2023-05-07T07:15:34;4.10;;;2.55;;
28074;SDS011;15385;51.088;6.572;2023-05-07T07:18:05;2.78;;;2.10;;
28074;SDS011;15385;51.088;6.572;2023-05-07T07:20:36;3.30;;;2.55;;
28074;SDS011;15385;51.088;6.572;2023-05-07T07:23:06;3.97;;;2.67;;
28074;SDS011;15385;51.088;6.572;2023-05-07T07:25:37;3.83;;;2.75;;
28074;SDS011;15385;51.088;6.572;2023-05-07T07:28:07;3.15;;;2.40;;
28074;SDS011;15385;51.088;6.572;2023-05-07T07:30:38;3.28;;;2.10;;
28074;SDS011;15385;51.088;6.572;2023-05-07T07:33:09;5.07;;;2.80;;
28074;SDS011;15385;51.088;6.572;2023-05-07T07:35:40;2.83;;;2.03;;
28074;SDS011;15385;51.088;6.572;2023-05-07T07:38:10;3.67;;;2.25;;
28074;SDS011;15385;51.088;6.572;2023-05-07T07:40:41;3.17;;;1.92;;
28074;SDS011;15385;51.088;6.572;2023-05-07T07:43:13;2.33;;;1.92;;
28074;SDS011;15385;51.088;6.572;2023-05-07T07:45:44;2.88;;;2.08;;
28074;SDS011;15385;51.088;6.572;2023-05-07T07:48:15;2.47;;;2.00;;
28074;SDS011;15385;51.088;6.572;2023-05-07T07:50:48;3.17;;;1.88;;
28074;SDS011;15385;51.088;6.572;2023-05-07T07:53:20;2.78;;;1.90;;
28074;SDS011;15385;51.088;6.572;2023-05-07T07:55:50;3.08;;;1.83;;
28074;SDS011;15385;51.088;6.572;2023-05-07T07:58:21;4.18;;;1.90;;
28074;SDS011;15385;51.088;6.572;2023-05-07T08:00:52;2.15;;;1.90;;
28074;SDS011;15385;51.088;6.572;2023-05-07T08:03:25;3.53;;;2.03;;
28074;SDS011;15385;51.088;6.572;2023-05-07T08:05:56;4.60;;;2.20;;
28074;SDS011;15385;51.088;6.572;2023-05-07T08:08:26;2.55;;;1.95;;
28074;SDS011;15385;51.088;6.572;2023-05-07T08:10:57;3.10;;;2.30;;
28074;SDS011;15385;51.088;6.572;2023-05-07T08:13:28;4.88;;;2.22;;
28074;SDS011;15385;51.088;6.572;2023-05-07T08:15:58;3.78;;;2.35;;
28074;SDS011;15385;51.088;6.572;2023-05-07T08:18:29;3.97;;;2.40;;
28074;SDS011;15385;51.088;6.572;2023-05-07T08:21:00;2.00;;;1.80;;
28074;SDS011;15385;51.088;6.572;2023-05-07T08:23:31;2.92;;;2.13;;
28074;SDS011;15385;51.088;6.572;2023-05-07T08:26:02;2.45;;;2.08;;
28074;SDS011;15385;51.088;6.572;2023-05-07T08:28:32;4.38;;;2.20;;
28074;SDS011;15385;51.088;6.572;2023-05-07T08:31:03;2.55;;;2.00;;
28074;SDS011;15385;51.088;6.572;2023-05-07T08:33:33;4.10;;;2.17;;
28074;SDS011;15385;51.088;6.572;2023-05-07T08:36:04;3.00;;;2.30;;
28074;SDS011;15385;51.088;6.572;2023-05-07T08:38:35;3.17;;;2.17;;
28074;SDS011;15385;51.088;6.572;2023-05-07T08:41:05;3.00;;;2.38;;
28074;SDS011;15385;51.088;6.572;2023-05-07T08:43:37;2.22;;;2.03;;
28074;SDS011;15385;51.088;6.572;2023-05-07T08:46:10;2.75;;;2.25;;
28074;SDS011;15385;51.088;6.572;2023-05-07T08:48:41;3.17;;;1.90;;
28074;SDS011;15385;51.088;6.572;2023-05-07T08:51:12;3.88;;;2.25;;
28074;SDS011;15385;51.088;6.572;2023-05-07T08:53:44;3.00;;;2.20;;
28074;SDS011;15385;51.088;6.572;2023-05-07T08:56:15;3.03;;;1.90;;
28074;SDS011;15385;51.088;6.572;2023-05-07T08:58:47;2.72;;;2.28;;
28074;SDS011;15385;51.088;6.572;2023-05-07T09:01:18;2.47;;;1.88;;
28074;SDS011;15385;51.088;6.572;2023-05-07T09:03:49;3.08;;;2.10;;
28074;SDS011;15385;51.088;6.572;2023-05-07T09:06:20;3.30;;;1.95;;
28074;SDS011;15385;51.088;6.572;2023-05-07T09:08:51;2.83;;;2.20;;
28074;SDS011;15385;51.088;6.572;2023-05-07T09:11:23;3.92;;;1.90;;
28074;SDS011;15385;51.088;6.572;2023-05-07T09:13:55;3.03;;;1.45;;
28074;SDS011;15385;51.088;6.572;2023-05-07T09:16:28;2.72;;;1.50;;
28074;SDS011;15385;51.088;6.572;2023-05-07T09:19:00;2.15;;;1.60;;
28074;SDS011;15385;51.088;6.572;2023-05-07T09:21:31;3.13;;;1.65;;
28074;SDS011;15385;51.088;6.572;2023-05-07T09:24:01;3.50;;;2.33;;
28074;SDS011;15385;51.088;6.572;2023-05-07T09:26:32;2.83;;;2.00;;
28074;SDS011;15385;51.088;6.572;2023-05-07T09:29:05;2.45;;;1.45;;
28074;SDS011;15385;51.088;6.572;2023-05-07T09:31:38;2.60;;;1.20;;
28074;SDS011;15385;51.088;6.572;2023-05-07T09:34:09;1.90;;;1.00;;
28074;SDS011;15385;51.088;6.572;2023-05-07T09:36:40;2.08;;;1.05;;
28074;SDS011;15385;51.088;6.572;2023-05-07T09:39:10;2.90;;;1.55;;
28074;SDS011;15385;51.088;6.572;2023-05-07T09:41:45;2.55;;;1.70;;
28074;SDS011;15385;51.088;6.572;2023-05-07T09:44:16;2.28;;;1.48;;
28074;SDS011;15385;51.088;6.572;2023-05-07T09:46:53;3.35;;;1.60;;
28074;SDS011;15385;51.088;6.572;2023-05-07T09:49:25;4.57;;;1.80;;
28074;SDS011;15385;51.088;6.572;2023-05-07T09:52:00;2.38;;;1.63;;
28074;SDS011;15385;51.088;6.572;2023-05-07T09:54:32;2.35;;;1.40;;
28074;SDS011;15385;51.088;6.572;2023-05-07T09:57:04;2.95;;;1.38;;
28074;SDS011;15385;51.088;6.572;2023-05-07T09:59:36;2.17;;;1.45;;
28074;SDS011;15385;51.088;6.572;2023-05-07T10:02:08;2.05;;;1.15;;
28074;SDS011;15385;51.088;6.572;2023-05-07T10:04:40;3.35;;;1.80;;
28074;SDS011;15385;51.088;6.572;2023-05-07T10:07:13;1.60;;;1.27;;
28074;SDS011;15385;51.088;6.572;2023-05-07T10:09:45;2.42;;;1.13;;
28074;SDS011;15385;51.088;6.572;2023-05-07T10:12:17;3.58;;;1.35;;
28074;SDS011;15385;51.088;6.572;2023-05-07T10:14:49;1.40;;;1.00;;
28074;SDS011;15385;51.088;6.572;2023-05-07T10:17:22;2.88;;;1.98;;
28074;SDS011;15385;51.088;6.572;2023-05-07T10:19:53;1.70;;;1.10;;
28074;SDS011;15385;51.088;6.572;2023-05-07T10:22:24;1.67;;;1.00;;
28074;SDS011;15385;51.088;6.572;2023-05-07T10:24:57;1.92;;;1.02;;
28074;SDS011;15385;51.088;6.572;2023-05-07T10:27:32;2.05;;;1.00;;
28074;SDS011;15385;51.088;6.572;2023-05-07T10:31:07;2.22;;;0.82;;
28074;SDS011;15385;51.088;6.572;2023-05-07T10:33:06;2.03;;;0.98;;
28074;SDS011;15385;51.088;6.572;2023-05-07T10:35:41;2.35;;;1.20;;
28074;SDS011;15385;51.088;6.572;2023-05-07T10:38:13;3.13;;;1.50;;
28074;SDS011;15385;51.088;6.572;2023-05-07T10:40:44;1.33;;;1.17;;
28074;SDS011;15385;51.088;6.572;2023-05-07T10:43:15;2.53;;;1.10;;
28074;SDS011;15385;51.088;6.572;2023-05-07T10:51:32;2.65;;;1.48;;
28074;SDS011;15385;51.088;6.572;2023-05-07T10:56:43;2.03;;;1.27;;
28074;SDS011;15385;51.088;6.572;2023-05-07T11:04:26;1.73;;;1.05;;
28074;SDS011;15385;51.088;6.572;2023-05-07T11:15:13;3.60;;;1.30;;
28074;SDS011;15385;51.088;6.572;2023-05-07T11:17:54;1.60;;;1.20;;
28074;SDS011;15385;51.088;6.572;2023-05-07T11:26:08;1.58;;;0.95;;
28074;SDS011;15385;51.088;6.572;2023-05-07T11:28:40;2.45;;;1.10;;
28074;SDS011;15385;51.088;6.572;2023-05-07T11:31:12;1.42;;;1.00;;
28074;SDS011;15385;51.088;6.572;2023-05-07T11:33:43;4.82;;;1.70;;
28074;SDS011;15385;51.088;6.572;2023-05-07T11:36:14;2.00;;;1.10;;
28074;SDS011;15385;51.088;6.572;2023-05-07T11:38:46;2.42;;;1.00;;
28074;SDS011;15385;51.088;6.572;2023-05-07T11:41:17;5.90;;;1.95;;
28074;SDS011;15385;51.088;6.572;2023-05-07T11:43:59;1.80;;;1.15;;
28074;SDS011;15385;51.088;6.572;2023-05-07T11:46:29;2.42;;;1.02;;
28074;SDS011;15385;51.088;6.572;2023-05-07T11:49:01;3.25;;;1.20;;
28074;SDS011;15385;51.088;6.572;2023-05-07T11:51:31;4.32;;;1.08;;
28074;SDS011;15385;51.088;6.572;2023-05-07T11:54:05;1.02;;;0.90;;
28074;SDS011;15385;51.088;6.572;2023-05-07T11:56:41;1.98;;;1.00;;
28074;SDS011;15385;51.088;6.572;2023-05-07T11:59:11;2.75;;;1.70;;
28074;SDS011;15385;51.088;6.572;2023-05-07T12:01:44;1.40;;;0.85;;
28074;SDS011;15385;51.088;6.572;2023-05-07T12:04:18;1.55;;;1.20;;
28074;SDS011;15385;51.088;6.572;2023-05-07T12:06:53;1.85;;;1.17;;
28074;SDS011;15385;51.088;6.572;2023-05-07T12:09:25;1.83;;;1.10;;
28074;SDS011;15385;51.088;6.572;2023-05-07T12:11:56;1.20;;;1.10;;
28074;SDS011;15385;51.088;6.572;2023-05-07T12:14:27;2.28;;;1.23;;
28074;SDS011;15385;51.088;6.572;2023-05-07T12:16:59;1.13;;;0.95;;
28074;SDS011;15385;51.088;6.572;2023-05-07T12:19:33;2.10;;;1.20;;
28074;SDS011;15385;51.088;6.572;2023-05-07T12:22:05;1.45;;;0.80;;
28074;SDS011;15385;51.088;6.572;2023-05-07T12:24:44;2.25;;;1.30;;
28074;SDS011;15385;51.088;6.572;2023-05-07T12:27:15;3.63;;;1.45;;
28074;SDS011;15385;51.088;6.572;2023-05-07T12:29:46;2.80;;;1.60;;
28074;SDS011;15385;51.088;6.572;2023-05-07T12:32:21;3.53;;;1.50;;
28074;SDS011;15385;51.088;6.572;2023-05-07T12:34:52;1.60;;;1.10;;
28074;SDS011;15385;51.088;6.572;2023-05-07T12:37:25;2.72;;;1.20;;
28074;SDS011;15385;51.088;6.572;2023-05-07T12:40:09;1.15;;;0.90;;
28074;SDS011;15385;51.088;6.572;2023-05-07T12:42:41;1.77;;;1.02;;
28074;SDS011;15385;51.088;6.572;2023-05-07T12:45:13;1.98;;;1.40;;
28074;SDS011;15385;51.088;6.572;2023-05-07T12:47:46;2.65;;;1.25;;
28074;SDS011;15385;51.088;6.572;2023-05-07T12:50:17;2.80;;;1.88;;
28074;SDS011;15385;51.088;6.572;2023-05-07T12:52:48;3.35;;;1.50;;
28074;SDS011;15385;51.088;6.572;2023-05-07T12:55:18;2.05;;;1.35;;
28074;SDS011;15385;51.088;6.572;2023-05-07T12:57:49;2.70;;;1.00;;
28074;SDS011;15385;51.088;6.572;2023-05-07T13:00:36;3.25;;;1.20;;
28074;SDS011;15385;51.088;6.572;2023-05-07T13:03:08;2.40;;;1.15;;
28074;SDS011;15385;51.088;6.572;2023-05-07T13:05:39;1.65;;;1.27;;
28074;SDS011;15385;51.088;6.572;2023-05-07T13:08:10;2.58;;;1.55;;
28074;SDS011;15385;51.088;6.572;2023-05-07T13:10:40;2.38;;;1.40;;
28074;SDS011;15385;51.088;6.572;2023-05-07T13:13:11;2.45;;;1.17;;
28074;SDS011;15385;51.088;6.572;2023-05-07T13:15:41;3.30;;;1.00;;
28074;SDS011;15385;51.088;6.572;2023-05-07T13:18:12;3.05;;;1.38;;
28074;SDS011;15385;51.088;6.572;2023-05-07T13:20:43;1.35;;;1.00;;
28074;SDS011;15385;51.088;6.572;2023-05-07T13:23:13;1.17;;;1.08;;
28074;SDS011;15385;51.088;6.572;2023-05-07T13:25:44;2.28;;;1.30;;
28074;SDS011;15385;51.088;6.572;2023-05-07T13:28:14;2.78;;;1.40;;
28074;SDS011;15385;51.088;6.572;2023-05-07T13:30:46;3.20;;;1.40;;
28074;SDS011;15385;51.088;6.572;2023-05-07T13:33:16;3.53;;;1.25;;
28074;SDS011;15385;51.088;6.572;2023-05-07T13:35:47;3.22;;;1.58;;
28074;SDS011;15385;51.088;6.572;2023-05-07T13:38:18;2.38;;;1.80;;
28074;SDS011;15385;51.088;6.572;2023-05-07T13:40:49;3.25;;;1.95;;
28074;SDS011;15385;51.088;6.572;2023-05-07T13:43:19;2.03;;;1.58;;
28074;SDS011;15385;51.088;6.572;2023-05-07T13:45:50;4.47;;;1.92;;
28074;SDS011;15385;51.088;6.572;2023-05-07T13:48:20;4.05;;;2.00;;
28074;SDS011;15385;51.088;6.572;2023-05-07T13:50:51;4.60;;;2.00;;
28074;SDS011;15385;51.088;6.572;2023-05-07T13:53:21;8.95;;;2.22;;
28074;SDS011;15385;51.088;6.572;2023-05-07T13:55:52;3.60;;;1.70;;
28074;SDS011;15385;51.088;6.572;2023-05-07T13:58:23;3.70;;;1.40;;
28074;SDS011;15385;51.088;6.572;2023-05-07T14:00:53;6.00;;;1.40;;
28074;SDS011;15385;51.088;6.572;2023-05-07T14:03:24;2.35;;;1.60;;
28074;SDS011;15385;51.088;6.572;2023-05-07T14:05:54;4.90;;;1.77;;
28074;SDS011;15385;51.088;6.572;2023-05-07T14:08:27;11.00;;;1.90;;
28074;SDS011;15385;51.088;6.572;2023-05-07T14:10:58;10.63;;;1.90;;
28074;SDS011;15385;51.088;6.572;2023-05-07T14:13:29;8.82;;;1.95;;
28074;SDS011;15385;51.088;6.572;2023-05-07T14:16:00;7.22;;;1.80;;
28074;SDS011;15385;51.088;6.572;2023-05-07T14:18:31;5.82;;;1.83;;
28074;SDS011;15385;51.088;6.572;2023-05-07T14:21:04;4.00;;;1.58;;
28074;SDS011;15385;51.088;6.572;2023-05-07T14:23:36;5.22;;;2.20;;
28074;SDS011;15385;51.088;6.572;2023-05-07T14:26:06;2.85;;;1.10;;
28074;SDS011;15385;51.088;6.572;2023-05-07T14:28:37;3.97;;;1.27;;
28074;SDS011;15385;51.088;6.572;2023-05-07T14:31:09;2.65;;;1.20;;
28074;SDS011;15385;51.088;6.572;2023-05-07T14:33:40;1.70;;;1.20;;
28074;SDS011;15385;51.088;6.572;2023-05-07T14:36:10;4.90;;;1.55;;
28074;SDS011;15385;51.088;6.572;2023-05-07T14:38:41;2.30;;;1.40;;
28074;SDS011;15385;51.088;6.572;2023-05-07T14:41:12;3.50;;;1.80;;
28074;SDS011;15385;51.088;6.572;2023-05-07T14:43:42;4.60;;;1.83;;
28074;SDS011;15385;51.088;6.572;2023-05-07T14:46:19;2.95;;;1.60;;
28074;SDS011;15385;51.088;6.572;2023-05-07T14:48:50;4.30;;;1.40;;
28074;SDS011;15385;51.088;6.572;2023-05-07T14:51:20;6.88;;;2.10;;
28074;SDS011;15385;51.088;6.572;2023-05-07T14:53:51;3.60;;;1.50;;
28074;SDS011;15385;51.088;6.572;2023-05-07T14:56:22;3.35;;;2.10;;
28074;SDS011;15385;51.088;6.572;2023-05-07T14:58:52;2.80;;;1.50;;
28074;SDS011;15385;51.088;6.572;2023-05-07T15:01:24;4.38;;;2.55;;
28074;SDS011;15385;51.088;6.572;2023-05-07T15:03:55;5.72;;;2.17;;
28074;SDS011;15385;51.088;6.572;2023-05-07T15:06:26;6.25;;;2.70;;
28074;SDS011;15385;51.088;6.572;2023-05-07T15:08:56;5.65;;;2.38;;
28074;SDS011;15385;51.088;6.572;2023-05-07T15:11:27;4.25;;;2.13;;
28074;SDS011;15385;51.088;6.572;2023-05-07T15:13:57;4.80;;;2.40;;
28074;SDS011;15385;51.088;6.572;2023-05-07T15:16:28;4.55;;;2.33;;
28074;SDS011;15385;51.088;6.572;2023-05-07T15:18:59;3.75;;;1.80;;
28074;SDS011;15385;51.088;6.572;2023-05-07T15:21:29;5.13;;;2.35;;
28074;SDS011;15385;51.088;6.572;2023-05-07T15:24:02;4.00;;;2.40;;
28074;SDS011;15385;51.088;6.572;2023-05-07T15:26:33;5.20;;;2.28;;
28074;SDS011;15385;51.088;6.572;2023-05-07T15:29:04;3.05;;;1.63;;
28074;SDS011;15385;51.088;6.572;2023-05-07T15:31:39;2.67;;;1.73;;
28074;SDS011;15385;51.088;6.572;2023-05-07T15:34:10;5.07;;;2.58;;
28074;SDS011;15385;51.088;6.572;2023-05-07T15:36:41;3.30;;;2.28;;
28074;SDS011;15385;51.088;6.572;2023-05-07T15:39:11;1.75;;;1.58;;